Time;durP1;ratioP1;P1;durP2;ratioP2;P2;SDS_P1;SDS_P2;PMS_P1;PMS_P2;Temp;Humidity;BMP_temperature;BMP_pressure;BME280_temperature;BME280_humidity;BME280_pressure;Samples;Min_cycle;Max_cycle;Signal;HPM_P1;HPM_P2
2022/09/16 04:18:48;;;;;;;16.17;11.95;;;;;;;14.11;100.00;99596.66;5554217;32;300356;-90
2022/09/16 04:21:51;;;;;;;17.05;11.90;;;;;;;14.06;100.00;99597.03;5544338;32;33842;-88
2022/09/16 04:24:54;;;;;;;14.85;11.82;;;;;;;14.10;100.00;99586.97;5544632;32;33941;-88
2022/09/16 04:27:56;;;;;;;16.62;12.00;;;;;;;14.13;100.00;99600.06;5543399;32;32935;-88
2022/09/16 04:31:01;;;;;;;14.55;11.48;;;;;;;14.22;100.00;99610.00;5544772;32;34768;-88
2022/09/16 04:34:05;;;;;;;15.07;11.23;;;;;;;14.26;100.00;99616.81;5544305;32;34132;-88
2022/09/16 04:37:08;;;;;;;13.62;10.77;;;;;;;14.33;100.00;99624.34;5543778;32;33835;-88
2022/09/16 04:40:11;;;;;;;14.30;11.32;;;;;;;14.22;100.00;99612.69;5543960;32;33661;-88
2022/09/16 04:43:14;;;;;;;14.45;11.85;;;;;;;14.14;100.00;99607.09;5544012;32;35056;-88
2022/09/16 04:46:17;;;;;;;14.05;11.55;;;;;;;14.09;100.00;99601.28;5543863;32;34468;-88
2022/09/16 04:49:19;;;;;;;13.15;10.80;;;;;;;14.08;100.00;99595.06;5544600;32;34185;-88
2022/09/16 04:52:23;;;;;;;13.93;11.02;;;;;;;14.15;100.00;99601.62;5545494;32;34306;-87
2022/09/16 04:55:25;;;;;;;14.32;11.10;;;;;;;14.33;100.00;99603.00;5546512;32;33752;-89
2022/09/16 04:58:28;;;;;;;13.68;10.50;;;;;;;14.28;100.00;99604.22;5543611;32;34194;-88
2022/09/16 05:01:33;;;;;;;12.80;10.40;;;;;;;14.30;100.00;99614.75;5593070;26;34246;-88
2022/09/16 05:04:36;;;;;;;15.43;10.45;;;;;;;14.34;100.00;99618.88;5565747;32;33929;-89
2022/09/16 05:07:38;;;;;;;13.43;10.00;;;;;;;14.34;100.00;99618.88;5563183;32;34090;-89
2022/09/16 05:10:41;;;;;;;14.35;9.50;;;;;;;14.41;100.00;99619.25;5562793;32;34193;-89
2022/09/16 05:13:44;;;;;;;11.70;9.82;;;;;;;14.71;100.00;99614.28;5562233;32;32553;-89
2022/09/16 05:16:47;;;;;;;10.93;9.68;;;;;;;14.65;100.00;99612.97;5568360;32;33868;-89
2022/09/16 05:19:49;;;;;;;13.27;10.15;;;;;;;14.65;100.00;99607.63;5579713;31;34609;-89
2022/09/16 05:22:55;;;;;;;12.48;10.23;;;;;;;14.71;100.00;99619.63;5563615;31;33903;-90
2022/09/16 05:26:13;;;;;;;12.48;9.75;;;;;;;14.78;100.00;99613.72;5565682;32;34430;-90
2022/09/16 05:29:16;;;;;;;11.70;9.35;;;;;;;14.81;100.00;99620.63;5565186;32;34093;-90
2022/09/16 05:32:19;;;;;;;12.13;9.00;;;;;;;14.90;100.00;99616.38;5552466;32;34802;-90
2022/09/16 05:35:21;;;;;;;11.93;9.35;;;;;;;14.90;100.00;99625.25;5552634;32;33891;-90
2022/09/16 05:38:24;;;;;;;10.95;9.18;;;;;;;14.99;100.00;99630.81;5552552;32;35223;-92
2022/09/16 05:41:27;;;;;;;12.25;9.63;;;;;;;14.92;100.00;99633.13;5552615;32;35066;-90
2022/09/16 05:44:31;;;;;;;11.25;9.65;;;;;;;14.94;100.00;99644.53;5546355;26;35158;-93
2022/09/16 05:47:34;;;;;;;11.73;9.88;;;;;;;14.90;100.00;99624.38;5530402;32;33811;-90
2022/09/16 05:50:36;;;;;;;12.90;9.90;;;;;;;14.98;100.00;99621.94;5529622;32;34011;-91
2022/09/16 06:04:34;;;;;;;13.38;9.25;;;;;;;15.33;100.00;99628.06;3446882;26;20110;-88
2022/09/16 06:07:37;;;;;;;12.32;8.90;;;;;;;15.36;100.00;99620.66;5569953;32;34245;-89
2022/09/16 06:10:40;;;;;;;9.65;8.25;;;;;;;15.45;100.00;99632.41;5570347;31;32334;-88
2022/09/16 06:13:43;;;;;;;10.15;8.40;;;;;;;15.79;100.00;99628.75;5574370;31;33748;-90
2022/09/16 06:16:46;;;;;;;10.88;8.73;;;;;;;15.58;100.00;99626.91;5577263;31;34058;-89
2022/09/16 06:19:49;;;;;;;10.30;8.25;;;;;;;15.66;100.00;99623.59;5570386;31;34411;-86
2022/09/16 06:22:51;;;;;;;15.25;9.07;;;;;;;15.72;100.00;99623.09;5576140;31;33495;-87
2022/09/16 06:26:03;;;;;;;11.43;8.20;;;;;;;15.82;100.00;99633.00;5587903;31;35519;-85
2022/09/16 06:29:08;;;;;;;11.27;9.20;;;;;;;15.88;100.00;99635.16;5588891;31;33608;-86
2022/09/16 06:32:10;;;;;;;10.55;9.05;;;;;;;16.00;100.00;99641.34;5590697;31;34816;-89
2022/09/16 06:35:13;;;;;;;13.62;8.60;;;;;;;15.83;100.00;99635.53;5588545;31;33460;-90
2022/09/16 06:38:16;;;;;;;9.85;8.20;;;;;;;15.68;100.00;99634.16;5576985;31;34546;-89
2022/09/16 06:41:20;;;;;;;13.65;9.05;;;;;;;15.94;100.00;99615.09;5569762;31;34779;-87
2022/09/16 06:44:22;;;;;;;12.05;8.65;;;;;;;16.22;100.00;99610.06;5581490;31;34325;-89
2022/09/16 06:47:25;;;;;;;13.50;9.15;;;;;;;16.24;100.00;99625.00;5592785;31;33861;-89
2022/09/16 06:50:28;;;;;;;19.60;8.48;;;;;;;16.20;100.00;99636.13;5568607;31;33851;-87
2022/09/16 06:53:32;;;;;;;12.88;8.65;;;;;;;16.34;100.00;99627.75;5565232;32;34583;-87
2022/09/16 06:56:36;;;;;;;13.90;8.27;;;;;;;16.29;100.00;99621.94;5553378;32;33170;-84
2022/09/16 06:59:39;;;;;;;12.43;7.90;;;;;;;16.30;100.00;99620.97;5569819;31;35154;-88
2022/09/16 07:02:42;;;;;;;11.18;8.20;;;;;;;16.52;100.00;99621.78;5584650;31;33450;-87
2022/09/16 07:05:55;;;;;;;9.52;7.50;;;;;;;16.71;100.00;99627.22;5589018;31;34237;-87
2022/09/16 07:08:58;;;;;;;8.65;7.68;;;;;;;16.91;100.00;99632.66;5572692;31;33400;-86
2022/09/16 07:12:01;;;;;;;10.55;7.82;;;;;;;16.78;100.00;99632.03;5567308;31;34062;-86
2022/09/16 07:15:04;;;;;;;12.63;7.53;;;;;;;16.67;100.00;99635.66;5554352;31;33917;-87
2022/09/16 07:18:08;;;;;;;10.23;7.50;;;;;;;17.20;98.79;99633.75;5574233;31;32101;-88
2022/09/16 07:21:10;;;;;;;10.38;7.32;;;;;;;17.22;96.57;99634.47;5577038;31;33925;-89
2022/09/16 07:24:14;;;;;;;10.65;7.53;;;;;;;17.41;96.71;99641.69;5586648;31;33752;-87
2022/09/16 07:27:17;;;;;;;9.45;6.70;;;;;;;17.57;92.56;99654.56;5621456;26;33909;-87
2022/09/16 07:30:19;;;;;;;12.80;6.95;;;;;;;17.63;94.83;99655.81;5565913;32;33631;-86
2022/09/16 07:33:22;;;;;;;11.10;6.93;;;;;;;17.82;91.45;99665.72;5570732;31;34172;-87
2022/09/16 07:36:27;;;;;;;7.85;6.25;;;;;;;17.89;92.40;99664.16;5570590;31;32833;-88
2022/09/16 07:39:30;;;;;;;9.32;6.75;;;;;;;17.91;90.00;99670.22;5564133;31;34416;-88
2022/09/16 07:42:33;;;;;;;6.70;6.00;;;;;;;18.33;88.70;99657.50;5555182;32;32584;-87
2022/09/16 07:45:35;;;;;;;7.82;6.20;;;;;;;18.27;87.51;99663.44;5568150;31;34691;-87
2022/09/16 07:48:38;;;;;;;7.70;5.82;;;;;;;18.21;90.47;99661.34;5576195;32;34510;-87
2022/09/16 07:51:42;;;;;;;7.93;6.30;;;;;;;18.26;89.10;99665.28;5570684;32;35922;-87
2022/09/16 07:54:45;;;;;;;6.87;6.12;;;;;;;18.18;91.75;99675.91;5578307;31;34562;-85
2022/09/16 07:57:47;;;;;;;10.85;6.53;;;;;;;18.25;89.64;99678.88;5587018;31;33580;-86
2022/09/16 08:00:50;;;;;;;9.70;6.12;;;;;;;17.90;89.27;99679.28;5586180;31;33733;-85
2022/09/16 08:03:54;;;;;;;6.57;5.97;;;;;;;17.69;90.60;99679.41;5585911;31;34249;-85
2022/09/16 08:06:57;;;;;;;8.20;6.40;;;;;;;17.63;91.21;99671.91;5557853;31;34457;-85
2022/09/16 08:10:00;;;;;;;8.63;6.35;;;;;;;17.87;90.58;99682.25;5577297;31;34431;-85
2022/09/16 08:13:04;;;;;;;12.07;6.30;;;;;;;18.15;88.61;99687.75;5587716;31;34556;-85
2022/09/16 08:16:10;;;;;;;14.30;6.78;;;;;;;18.37;87.20;99690.28;5573845;31;34125;-84
2022/09/16 08:19:13;;;;;;;7.78;6.47;;;;;;;17.87;86.52;99697.47;5567717;31;34361;-84
2022/09/16 08:22:16;;;;;;;9.45;5.90;;;;;;;17.50;90.76;99694.47;5579265;31;33672;-85
2022/09/16 08:25:19;;;;;;;7.97;6.12;;;;;;;17.73;90.75;99682.66;5579331;31;34169;-84
2022/09/16 08:28:21;;;;;;;7.75;6.15;;;;;;;17.80;89.61;99691.00;5561670;32;32373;-84
2022/09/16 08:31:24;;;;;;;6.68;5.97;;;;;;;17.83;89.10;99690.69;5553210;32;33731;-85
2022/09/16 08:34:27;;;;;;;13.40;6.20;;;;;;;17.89;86.86;99692.81;5548330;32;33061;-85
2022/09/16 08:37:30;;;;;;;6.87;5.65;;;;;;;17.84;84.65;99695.06;5554087;32;34087;-85
2022/09/16 08:40:35;;;;;;;8.02;5.40;;;;;;;17.43;87.87;99687.97;5553239;32;34102;-85
2022/09/16 08:44:07;;;;;;;7.45;5.97;;;;;;;17.42;90.18;99686.28;5560299;32;32576;-84
2022/09/16 08:47:31;;;;;;;8.55;5.87;;;;;;;17.85;87.91;99681.53;5559014;32;33025;-84
2022/09/16 08:50:38;;;;;;;7.93;5.57;;;;;;;17.74;86.20;99690.56;5562914;32;33902;-84
2022/09/16 08:53:51;;;;;;;8.55;5.82;;;;;;;17.51;88.07;99676.56;5559036;32;34816;-84
2022/09/16 08:56:59;;;;;;;9.25;5.45;;;;;;;17.72;87.60;99683.63;5577211;32;34966;-84
2022/09/16 09:00:12;;;;;;;9.05;5.80;;;;;;;17.66;85.84;99685.06;5571543;32;33985;-85
2022/09/16 09:03:35;;;;;;;8.13;5.22;;;;;;;17.50;85.91;99694.47;5549671;32;35920;-84
2022/09/16 09:06:57;;;;;;;6.85;5.50;;;;;;;17.23;84.65;99701.34;5569439;32;34024;-84
2022/09/16 09:10:23;;;;;;;8.57;5.20;;;;;;;17.42;85.61;99701.50;5566415;32;34874;-83
2022/09/16 09:13:37;;;;;;;7.50;5.30;;;;;;;17.54;85.28;99697.72;5567896;32;34141;-84
2022/09/16 09:17:08;;;;;;;8.20;5.03;;;;;;;17.55;85.37;99703.94;5572291;32;34859;-90
2022/09/16 09:20:23;;;;;;;9.93;4.95;;;;;;;17.12;85.18;99688.03;5570972;32;33847;-85
2022/09/16 09:23:59;;;;;;;9.30;4.75;;;;;;;17.22;86.38;99688.91;5576963;32;33875;-84
2022/09/16 09:27:27;;;;;;;8.98;4.85;;;;;;;17.54;83.59;99687.00;5582428;31;34293;-85
2022/09/16 09:30:32;;;;;;;6.62;4.40;;;;;;;17.58;83.46;99690.25;5594355;31;33781;-85
2022/09/16 09:34:07;;;;;;;6.00;4.50;;;;;;;17.69;81.82;99694.66;5585909;31;32480;-85
2022/09/16 09:37:28;;;;;;;7.25;4.90;;;;;;;17.51;82.17;99690.81;5585098;31;33285;-85
2022/09/16 09:40:38;;;;;;;7.03;4.45;;;;;;;17.33;82.36;99681.72;5583622;31;35476;-89
2022/09/16 09:44:06;;;;;;;9.75;4.65;;;;;;;17.51;83.95;99682.75;5571029;32;33693;-91
2022/09/16 09:47:24;;;;;;;6.50;4.70;;;;;;;17.70;81.29;99685.62;5564282;32;32916;-85
2022/09/16 09:50:45;;;;;;;9.13;4.60;;;;;;;17.94;81.94;99695.94;5571336;32;33712;-85
2022/09/16 09:53:55;;;;;;;8.23;4.77;;;;;;;18.15;80.55;99689.63;5568569;31;33853;-85
2022/09/16 09:57:04;;;;;;;8.43;4.50;;;;;;;18.01;79.51;99686.31;5562517;32;33630;-85
2022/09/16 10:00:17;;;;;;;5.80;4.05;;;;;;;17.94;77.73;99685.19;5580892;31;33968;-85
2022/09/16 10:03:20;;;;;;;6.65;4.10;;;;;;;18.34;75.25;99682.53;5576060;32;34636;-85
2022/09/16 10:06:33;;;;;;;5.72;4.32;;;;;;;18.51;76.56;99676.38;5576150;31;35281;-85
2022/09/16 10:09:37;;;;;;;4.75;3.80;;;;;;;18.36;74.96;99670.63;5552148;32;34599;-85
2022/09/16 10:12:39;;;;;;;6.70;4.00;;;;;;;18.65;74.47;99656.28;5551320;32;33988;-85
2022/09/16 10:15:43;;;;;;;5.25;3.90;;;;;;;18.47;69.14;99669.62;5550089;32;34438;-85
2022/09/16 10:19:22;;;;;;;4.68;3.37;;;;;;;18.36;69.79;99669.78;5571471;31;34440;-86
2022/09/16 10:22:31;;;;;;;6.37;3.53;;;;;;;18.42;72.11;99672.72;5525399;31;33793;-88
2022/09/16 10:25:33;;;;;;;3.75;3.33;;;;;;;18.69;71.53;99667.56;5585072;31;33815;-88
2022/09/16 10:28:37;;;;;;;5.03;3.53;;;;;;;18.78;69.86;99666.72;5580546;31;34620;-86
2022/09/16 10:31:41;;;;;;;5.47;3.10;;;;;;;18.75;68.25;99661.62;5556082;32;32417;-86
2022/09/16 10:34:45;;;;;;;6.87;3.08;;;;;;;18.70;66.38;99667.44;5574905;31;33941;-86
2022/09/16 10:37:54;;;;;;;6.18;3.72;;;;;;;18.43;68.15;99665.53;5559718;32;34629;-86
2022/09/16 10:41:16;;;;;;;7.05;3.12;;;;;;;18.69;67.88;99667.56;5577391;31;34194;-87
2022/09/16 10:44:32;;;;;;;;;;;;;;;18.82;69.32;99664.56;5573398;31;33764;-87
2022/09/16 10:47:36;;;;;;;3.72;3.00;;;;;;;18.73;66.20;99660.94;5556002;32;35295;-87
2022/09/16 10:50:38;;;;;;;8.93;3.30;;;;;;;18.78;67.35;99665.84;5557933;32;32431;-86
2022/09/16 10:53:50;;;;;;;3.30;2.97;;;;;;;18.42;66.06;99666.53;5556569;32;32756;-85
2022/09/16 10:56:53;;;;;;;5.12;3.15;;;;;;;18.38;67.38;99673.16;5594518;31;34042;-86
2022/09/16 11:00:12;;;;;;;4.28;3.12;;;;;;;18.17;65.80;99666.16;5587901;31;32202;-87
2022/09/16 11:03:49;;;;;;;4.95;3.10;;;;;;;17.94;67.27;99669.09;5588749;31;33810;-87
2022/09/16 11:07:09;;;;;;;4.50;3.55;;;;;;;18.11;70.24;99666.72;5580020;32;34011;-87
2022/09/16 11:10:35;;;;;;;5.55;3.35;;;;;;;18.18;72.27;99655.28;5559789;31;32696;-91
2022/09/16 11:13:53;;;;;;;3.25;2.80;;;;;;;18.51;69.08;99676.38;5552394;32;32359;-86
2022/09/16 11:17:14;;;;;;;5.75;2.78;;;;;;;18.47;65.39;99674.16;5555516;32;32893;-87
2022/09/16 11:20:22;;;;;;;7.45;3.15;;;;;;;18.82;65.06;99669.94;5570458;32;33995;-86
2022/09/16 11:24:16;;;;;;;6.90;3.40;;;;;;;19.06;64.12;99668.59;5580699;31;34074;-87
2022/09/16 11:27:49;;;;;;;6.80;3.47;;;;;;;19.00;65.08;99670.00;5535582;31;33330;-85
2022/09/16 11:31:26;;;;;;;4.32;2.97;;;;;;;19.35;64.61;99668.44;5569193;32;33932;-84
2022/09/16 11:34:48;;;;;;;8.65;3.92;;;;;;;19.45;64.18;99654.09;5586797;31;33804;-86
2022/09/16 11:37:53;;;;;;;3.83;2.87;;;;;;;19.41;66.16;99648.16;5583062;31;33755;-86
2022/09/16 11:41:14;;;;;;;3.42;2.87;;;;;;;19.58;62.83;99643.81;5557237;32;32826;-86
2022/09/16 11:44:52;;;;;;;4.15;3.08;;;;;;;19.82;62.07;99644.19;5567948;31;33283;-86
2022/09/16 11:48:46;;;;;;;5.47;2.90;;;;;;;20.19;58.91;99644.00;5554658;32;32444;-86
2022/09/16 11:52:04;;;;;;;6.55;2.95;;;;;;;20.49;58.86;99648.22;5495866;32;33841;-86
2022/09/16 11:55:59;;;;;;;4.10;2.50;;;;;;;20.49;56.47;99629.38;5484802;32;33540;-90
2022/09/16 11:59:33;;;;;;;3.15;2.40;;;;;;;20.37;56.54;99635.03;5478255;32;34243;-86
2022/09/16 12:02:51;;;;;;;2.83;2.28;;;;;;;20.20;55.02;99621.47;5481455;32;33246;-86
2022/09/16 12:06:07;;;;;;;4.93;2.42;;;;;;;20.26;58.38;99624.53;5506792;32;33841;-86
2022/09/16 12:09:16;;;;;;;3.67;2.20;;;;;;;20.59;58.76;99622.03;5491638;32;33764;-86
2022/09/16 12:12:22;;;;;;;2.33;2.12;;;;;;;20.64;55.76;99626.94;5494143;32;33846;-87
2022/09/16 12:15:32;;;;;;;4.55;2.20;;;;;;;20.22;56.12;99612.37;5488726;32;33688;-87
2022/09/16 12:18:44;;;;;;;3.78;2.50;;;;;;;20.35;56.52;99610.09;5480984;32;33130;-87
2022/09/16 12:21:54;;;;;;;3.20;2.20;;;;;;;20.17;57.82;99602.91;5494790;32;32255;-88
2022/09/16 12:25:17;;;;;;;2.45;2.25;;;;;;;19.92;58.68;99615.34;5520250;32;32971;-87
2022/09/16 12:28:26;;;;;;;2.50;2.30;;;;;;;19.45;57.52;99613.75;5570686;31;34859;-87
2022/09/16 12:31:48;;;;;;;3.33;2.28;;;;;;;19.88;58.70;99598.66;5584445;31;34396;-87
2022/09/16 12:35:05;;;;;;;3.10;2.05;;;;;;;19.98;57.80;99592.34;5585678;31;34947;-87
2022/09/16 12:38:19;;;;;;;2.55;2.30;;;;;;;19.96;57.52;99591.69;5551891;32;32242;-85
2022/09/16 12:41:40;;;;;;;3.20;2.30;;;;;;;19.97;59.18;99596.06;5577403;31;35142;-87
2022/09/16 12:44:53;;;;;;;3.08;2.28;;;;;;;19.57;59.89;99599.06;5551413;31;33464;-87
2022/09/16 12:48:20;;;;;;;4.28;2.60;;;;;;;19.69;59.11;99593.44;5565496;31;34438;-87
2022/09/16 12:51:38;;;;;;;2.60;2.40;;;;;;;19.71;59.72;99583.38;5556962;31;33658;-86
2022/09/16 12:55:25;;;;;;;4.93;2.60;;;;;;;19.76;61.05;99581.06;5554622;31;34315;-85
2022/09/16 12:58:37;;;;;;;3.40;2.33;;;;;;;19.86;60.47;99579.13;5553686;32;32810;-87
2022/09/16 13:01:47;;;;;;;5.95;2.10;;;;;;;19.84;57.95;99572.19;5575470;31;33752;-86
2022/09/16 13:04:57;;;;;;;2.65;2.20;;;;;;;20.08;58.08;99570.72;5566115;31;32794;-87
2022/09/16 13:08:05;;;;;;;3.33;2.03;;;;;;;20.18;55.91;99569.59;5555813;32;32385;-88
2022/09/16 13:11:20;;;;;;;4.32;2.03;;;;;;;20.18;57.15;99566.91;5564312;31;33987;-88
2022/09/16 13:14:47;;;;;;;3.08;1.80;;;;;;;19.85;56.73;99558.59;5578364;31;34243;-87
2022/09/16 13:17:52;;;;;;;3.35;2.03;;;;;;;20.02;56.11;99564.13;5588207;31;34555;-88
2022/09/16 13:21:01;;;;;;;4.35;2.15;;;;;;;19.92;55.95;99565.03;5556188;32;32255;-87
2022/09/16 13:24:36;;;;;;;3.47;2.43;;;;;;;19.87;58.88;99570.03;5555069;32;32902;-87
2022/09/16 13:27:52;;;;;;;5.60;2.20;;;;;;;20.04;58.29;99564.81;5565086;31;34772;-89
2022/09/16 13:31:08;;;;;;;3.65;1.70;;;;;;;19.91;57.71;99567.88;5563250;31;35226;-88
2022/09/16 13:34:16;;;;;;;3.42;2.03;;;;;;;19.80;58.89;99567.16;5585880;31;34515;-88
2022/09/16 13:37:25;;;;;;;5.32;2.10;;;;;;;19.83;60.00;99567.81;5586147;31;33575;-88
2022/09/16 13:40:30;;;;;;;2.80;2.10;;;;;;;19.93;58.50;99560.50;5577592;31;34469;-88
2022/09/16 13:43:41;;;;;;;4.10;2.00;;;;;;;19.74;58.29;99561.53;5585337;31;34266;-89
2022/09/16 13:46:43;;;;;;;3.50;2.25;;;;;;;19.94;59.64;99551.44;5568463;31;32968;-88
2022/09/16 13:49:55;;;;;;;5.32;2.30;;;;;;;19.83;59.33;99549.84;5543315;32;33442;-87
2022/09/16 13:53:08;;;;;;;2.83;2.00;;;;;;;19.90;60.17;99547.34;5566375;31;34544;-87
2022/09/16 13:56:29;;;;;;;4.20;2.40;;;;;;;19.93;60.93;99547.06;5576826;31;34485;-86
2022/09/16 13:59:47;;;;;;;7.25;2.37;;;;;;;19.60;60.40;99541.41;5564576;31;33156;-87
2022/09/16 14:03:13;;;;;;;4.57;2.35;;;;;;;19.85;61.18;99528.13;5569802;31;33938;-86
2022/09/16 14:07:05;;;;;;;5.57;2.62;;;;;;;19.89;62.14;99535.75;5551118;32;32357;-87
2022/09/16 14:10:45;;;;;;;5.78;2.25;;;;;;;19.89;62.69;99532.22;5549252;31;35071;-86
2022/09/16 14:13:53;;;;;;;4.43;2.50;;;;;;;19.61;62.81;99530.50;5567486;31;34172;-87
2022/09/16 14:17:22;;;;;;;2.97;2.17;;;;;;;19.87;62.84;99529.66;5558181;31;33967;-87
2022/09/16 14:20:28;;;;;;;2.30;2.10;;;;;;;19.84;61.72;99524.62;5560323;31;35059;-87
2022/09/16 14:23:32;;;;;;;2.35;2.15;;;;;;;19.69;62.26;99524.34;5577681;31;35079;-87
2022/09/16 14:26:35;;;;;;;3.05;2.40;;;;;;;19.50;63.13;99522.66;5565534;31;32801;-86
2022/09/16 14:29:37;;;;;;;8.32;2.45;;;;;;;19.32;65.44;99526.25;5572852;31;34167;-87
2022/09/16 14:32:40;;;;;;;4.95;2.85;;;;;;;19.23;65.43;99519.09;5554855;31;33255;-87
2022/09/16 14:35:46;;;;;;;3.05;2.17;;;;;;;18.93;65.92;99519.28;5561288;32;34359;-86
2022/09/16 14:38:55;;;;;;;4.37;2.65;;;;;;;18.99;66.92;99524.06;5568727;32;35354;-87
2022/09/16 14:42:02;;;;;;;4.82;2.80;;;;;;;19.04;67.05;99523.63;5568001;32;33590;-86
2022/09/16 14:45:07;;;;;;;4.05;2.40;;;;;;;18.97;66.22;99520.66;5567694;32;34217;-87
2022/09/16 14:48:12;;;;;;;4.55;2.85;;;;;;;18.84;65.79;99522.88;5567662;32;34196;-87
2022/09/16 14:51:24;;;;;;;4.72;2.28;;;;;;;18.64;66.79;99508.69;5567373;31;35236;-87
2022/09/16 14:54:28;;;;;;;5.18;2.45;;;;;;;18.67;66.35;99492.28;5534589;32;33710;-91
2022/09/16 14:57:38;;;;;;;5.93;3.40;;;;;;;18.43;67.74;99491.88;5535169;32;32879;-92
